Time;durP1;ratioP1;P1;durP2;ratioP2;P2;SDS_P1;SDS_P2;PMS_P1;PMS_P2;Temp;Humidity;BMP_temperature;BMP_pressure;BME280_temperature;BME280_humidity;BME280_pressure;Samples;Min_cycle;Max_cycle;Signal;HPM_P1;HPM_P2
2022/06/22 00:02:56;;;;;;;;;;;;;;;15.25;48.30371;101507.5;;;;-82
2022/06/22 00:07:59;;;;;;;;;;;;;;;15.16;48.50781;101507.6;;;;-82
2022/06/22 00:12:58;;;;;;;;;;;;;;;15.08;48.70215;101504.3;;;;-82
2022/06/22 00:15:50;;;;;;;6.7;3.4;;;;;;;;;;;;;-83
2022/06/22 00:17:54;;;;;;;;;;;;;;;15.03;48.64063;101509.4;;;;-83
2022/06/22 00:22:55;;;;;;;;;;;;;;;14.95;48.85742;101514;;;;-84
2022/06/22 00:27:56;;;;;;;;;;;;;;;14.9;48.89551;101525.3;;;;-84
2022/06/22 00:33:03;;;;;;;;;;;;;;;14.85;49.07031;101525.1;;;;-83
2022/06/22 00:37:57;;;;;;;;;;;;;;;14.75;49.24023;101523.9;;;;-83
2022/06/22 00:42:55;;;;;;;;;;;;;;;14.67;49.32129;101523;;;;-83
2022/06/22 00:45:59;;;;;;;6.7;3.8;;;;;;;;;;;;;-82
2022/06/22 00:48:03;;;;;;;;;;;;;;;14.59;49.36914;101539.2;;;;-85
2022/06/22 00:53:04;;;;;;;;;;;;;;;14.53;49.60938;101542.9;;;;-84
2022/06/22 00:57:58;;;;;;;;;;;;;;;14.42;49.58691;101544.4;;;;-83
2022/06/22 01:02:57;;;;;;;;;;;;;;;14.35;49.89453;101547.2;;;;-85
2022/06/22 01:07:59;;;;;;;;;;;;;;;14.27;49.95215;101546.2;;;;-83
2022/06/22 01:12:56;;;;;;;;;;;;;;;14.2;50.03516;101543.9;;;;-81
2022/06/22 01:15:56;;;;;;;5.8;3.5;;;;;;;;;;;;;-83
2022/06/22 01:17:59;;;;;;;;;;;;;;;14.15;50.08496;101527.8;;;;-82
2022/06/22 01:23:08;;;;;;;;;;;;;;;14.08;50.07813;101518.5;;;;-82
2022/06/22 01:27:55;;;;;;;;;;;;;;;14.02;50.14941;101521.2;;;;-83
2022/06/22 01:32:55;;;;;;;;;;;;;;;13.93;50.18262;101513.6;;;;-84
2022/06/22 01:37:55;;;;;;;;;;;;;;;13.86;50.41211;101508.4;;;;-82
2022/06/22 01:42:59;;;;;;;;;;;;;;;13.84;50.25293;101510.4;;;;-82
2022/06/22 01:45:57;;;;;;;6.4;3.6;;;;;;;;;;;;;-83
2022/06/22 01:47:59;;;;;;;;;;;;;;;13.76;50.49023;101516.6;;;;-85
2022/06/22 01:53:02;;;;;;;;;;;;;;;13.73;50.31836;101515;;;;-83
2022/06/22 01:57:59;;;;;;;;;;;;;;;13.63;50.58789;101508.2;;;;-81
2022/06/22 02:03:00;;;;;;;;;;;;;;;13.57;50.59277;101508.3;;;;-84
2022/06/22 02:07:58;;;;;;;;;;;;;;;13.52;50.48535;101506;;;;-83
2022/06/22 02:12:58;;;;;;;;;;;;;;;13.48;50.55957;101502.1;;;;-83
2022/06/22 02:15:58;;;;;;;6.4;3.7;;;;;;;;;;;;;-82
2022/06/22 02:18:00;;;;;;;;;;;;;;;13.4;50.70801;101509.1;;;;-83
2022/06/22 02:22:59;;;;;;;;;;;;;;;13.36;50.64746;101515.4;;;;-83
2022/06/22 02:27:55;;;;;;;;;;;;;;;13.33;50.58691;101518.4;;;;-83
2022/06/22 02:32:56;;;;;;;;;;;;;;;13.28;50.68164;101530.1;;;;-82
2022/06/22 02:38:00;;;;;;;;;;;;;;;13.25;50.61133;101542;;;;-84
2022/06/22 02:45:57;;;;;;;6.6;3.7;;;;;;;;;;;;;-81
2022/06/22 02:47:59;;;;;;;;;;;;;;;13.13;51.2373;101531.6;;;;-84
2022/06/22 02:52:58;;;;;;;;;;;;;;;13.08;51.36719;101513.4;;;;-83
2022/06/22 02:58:00;;;;;;;;;;;;;;;13.07;51.34375;101511.6;;;;-83
2022/06/22 03:02:58;;;;;;;;;;;;;;;13.04;51.32813;101503.3;;;;-82
2022/06/22 03:07:57;;;;;;;;;;;;;;;12.96;51.43066;101485.5;;;;-83
2022/06/22 03:12:56;;;;;;;;;;;;;;;12.93;51.39355;101482.6;;;;-83
2022/06/22 03:15:57;;;;;;;4.9;3.1;;;;;;;;;;;;;-83
2022/06/22 03:18:02;;;;;;;;;;;;;;;12.9;51.48047;101488.3;;;;-83
2022/06/22 03:22:57;;;;;;;;;;;;;;;12.87;51.54297;101468.7;;;;-83
2022/06/22 03:27:57;;;;;;;;;;;;;;;12.84;51.5293;101461.2;;;;-83
2022/06/22 03:32:58;;;;;;;;;;;;;;;12.85;51.40625;101454.9;;;;-82
2022/06/22 03:38:00;;;;;;;;;;;;;;;12.76;51.53125;101446.3;;;;-83
2022/06/22 03:42:58;;;;;;;;;;;;;;;12.76;51.28516;101452.6;;;;-82
2022/06/22 03:46:02;;;;;;;4;2.8;;;;;;;;;;;;;-82
2022/06/22 03:47:59;;;;;;;;;;;;;;;12.7;51.52441;101449.9;;;;-83
2022/06/22 03:52:57;;;;;;;;;;;;;;;12.73;51.4375;101447;;;;-82
2022/06/22 03:57:56;;;;;;;;;;;;;;;12.71;51.52539;101455;;;;-82
2022/06/22 04:02:59;;;;;;;;;;;;;;;12.74;51.51855;101464.2;;;;-83
2022/06/22 04:08:03;;;;;;;;;;;;;;;12.73;51.58398;101461.3;;;;-83
2022/06/22 04:13:01;;;;;;;;;;;;;;;12.71;51.6709;101472;;;;-84
2022/06/22 04:16:02;;;;;;;6.3;3.4;;;;;;;;;;;;;-81
2022/06/22 04:17:57;;;;;;;;;;;;;;;12.75;51.59668;101479.7;;;;-82
2022/06/22 04:22:57;;;;;;;;;;;;;;;12.82;51.49316;101484.5;;;;-82
2022/06/22 04:28:02;;;;;;;;;;;;;;;12.81;51.53711;101489.3;;;;-84
2022/06/22 04:33:00;;;;;;;;;;;;;;;12.85;51.45117;101498.7;;;;-82
2022/06/22 04:38:00;;;;;;;;;;;;;;;12.86;51.48633;101491.4;;;;-82
2022/06/22 04:42:58;;;;;;;;;;;;;;;12.91;51.46973;101498.1;;;;-83
2022/06/22 04:46:01;;;;;;;5.4;3.4;;;;;;;;;;;;;-82
2022/06/22 04:47:56;;;;;;;;;;;;;;;12.97;51.26465;101492.4;;;;-84
2022/06/22 04:52:55;;;;;;;;;;;;;;;13.01;51.0332;101498.1;;;;-81
2022/06/22 04:57:56;;;;;;;;;;;;;;;13.07;51.06152;101506.9;;;;-82
2022/06/22 05:03:00;;;;;;;;;;;;;;;13.1;51.14453;101498.4;;;;-82
2022/06/22 05:07:57;;;;;;;;;;;;;;;13.15;50.8916;101495.4;;;;-83
2022/06/22 05:13:00;;;;;;;;;;;;;;;13.22;50.93359;101506.5;;;;-84
2022/06/22 05:16:03;;;;;;;5.7;3.1;;;;;;;;;;;;;-81
2022/06/22 05:17:55;;;;;;;;;;;;;;;13.33;50.99023;101507.4;;;;-83
2022/06/22 05:23:00;;;;;;;;;;;;;;;13.56;51.50098;101523;;;;-82
2022/06/22 05:27:58;;;;;;;;;;;;;;;14.09;51.32813;101512.7;;;;-83
2022/06/22 05:32:57;;;;;;;;;;;;;;;14.92;49.66504;101515.1;;;;-83
2022/06/22 05:37:56;;;;;;;;;;;;;;;15.87;48.10938;101516.9;;;;-82
2022/06/22 05:42:55;;;;;;;;;;;;;;;16.81;46.05957;101522.4;;;;-84
2022/06/22 05:46:06;;;;;;;4;2.6;;;;;;;;;;;;;-85
2022/06/22 05:47:57;;;;;;;;;;;;;;;17.64;45.12305;101522.8;;;;-85
2022/06/22 05:53:00;;;;;;;;;;;;;;;18.38;43.96973;101518;;;;-84
2022/06/22 05:58:00;;;;;;;;;;;;;;;19.09;42.94629;101528;;;;-84
2022/06/22 06:03:11;;;;;;;;;;;;;;;19.67;42.28223;101521.5;;;;-84
2022/06/22 06:07:56;;;;;;;;;;;;;;;20.26;41.71973;101520.1;;;;-82
2022/06/22 06:13:01;;;;;;;;;;;;;;;20.82;41.46289;101520.6;;;;-83
2022/06/22 06:16:15;;;;;;;4.9;2.7;;;;;;;;;;;;;-84
2022/06/22 06:18:01;;;;;;;;;;;;;;;21.33;40.98242;101527.3;;;;-83
2022/06/22 06:23:00;;;;;;;;;;;;;;;21.88;40.36621;101529.9;;;;-84
2022/06/22 06:28:02;;;;;;;;;;;;;;;22.41;39.875;101527.4;;;;-85
2022/06/22 06:32:59;;;;;;;;;;;;;;;22.99;39.34961;101527.8;;;;-84
2022/06/22 06:46:18;;;;;;;4.2;2.4;;;;;;;;;;;;;-84
2022/06/22 06:48:10;;;;;;;;;;;;;;;24.37;38.26953;101531;;;;-85
2022/06/22 06:58:20;;;;;;;;;;;;;;;25.09;38.05273;101535.1;;;;-84
2022/06/22 07:07:07;;;;;;;;;;;;;;;25.97;36.95508;101521.1;;;;-87
2022/06/22 07:11:36;;;;;;;;;;;;;;;25.97;37.11816;101525.8;;;;-85
2022/06/22 07:21:32;;;;;;;;;;;;;;;26.49;36.80078;101518;;;;-86
2022/06/22 07:26:21;;;;;;;;;;;;;;;26.77;36.41602;101512.9;;;;-85
2022/06/22 07:31:24;;;;;;;;;;;;;;;27.05;36.125;101501;;;;-85
2022/06/22 07:36:19;;;;;;;;;;;;;;;27.34;35.58984;101497;;;;-83
2022/06/22 07:41:22;;;;;;;;;;;;;;;27.56;35.36133;101488.8;;;;-87
2022/06/22 07:46:24;;;;;;;;;;;;;;;27.78;35.17969;101480.7;;;;-86
2022/06/22 07:46:38;;;;;;;4.8;1.9;;;;;;;;;;;;;-86
2022/06/22 07:51:27;;;;;;;;;;;;;;;27.96;34.98535;101485;;;;-86
2022/06/22 07:56:21;;;;;;;;;;;;;;;28.13;34.9043;101484.3;;;;-88
2022/06/22 08:01:21;;;;;;;;;;;;;;;28.29;34.74219;101484.9;;;;-87
2022/06/22 08:06:22;;;;;;;;;;;;;;;28.37;34.62012;101489.5;;;;-85
2022/06/22 08:11:34;;;;;;;;;;;;;;;28.49;34.48828;101493.1;;;;-86
2022/06/22 08:16:57;;;;;;;5.1;2;;;;;;;;;;;;;-85
2022/06/22 08:21:20;;;;;;;;;;;;;;;28.87;34.13086;101498.5;;;;-86
2022/06/22 08:26:36;;;;;;;;;;;;;;;;;;;;;
2022/06/22 08:31:17;;;;;;;;;;;;;;;29.18;33.66309;101498.6;;;;-88
2022/06/22 08:51:45;;;;;;;;;;;;;;;29.88;32.75391;101510.4;;;;-88
2022/06/22 08:56:56;;;;;;;;;;;;;;;;;;;;;
2022/06/22 09:10:36;;;;;;;;;;;;;;;30.71;31.6748;101517;;;;-90
2022/06/22 09:15:24;;;;;;;;;;;;;;;31.23;31.05273;101524.5;;;;-87
2022/06/22 09:17:03;;;;;;;3.6;1.3;;;;;;;;;;;;;-87
2022/06/22 09:25:16;;;;;;;;;;;;;;;;;;;;;
2022/06/22 09:47:38;;;;;;;;;;;;;;;32.3;30.21777;101529.8;;;;-86
2022/06/22 10:00:37;;;;;;;;;;;;;;;32.49;29.8291;101535.5;;;;-85
2022/06/22 10:05:49;;;;;;;;;;;;;;;32.65;29.58008;101528;;;;-85
2022/06/22 10:12:05;;;;;;;;;;;;;;;33.32;28.7832;101531.3;;;;-83
2022/06/22 10:17:11;;;;;;;;;;;;;;;33.37;28.63281;101515.3;;;;-87
2022/06/22 10:25:21;;;;;;;;;;;;;;;33.42;28.50586;101520.2;;;;-85
2022/06/22 10:30:10;;;;;;;;;;;;;;;33.58;28.29102;101515.9;;;;-85
2022/06/22 10:35:11;;;;;;;;;;;;;;;33.73;27.80273;101515;;;;-85
2022/06/22 10:54:59;;;;;;;;;;;;;;;34.06;26.61426;101497.7;;;;-88
2022/06/22 11:00:03;;;;;;;;;;;;;;;34.09;27.00781;101488.7;;;;-89
2022/06/22 11:04:59;;;;;;;;;;;;;;;34.15;26.51367;101486.2;;;;-88
2022/06/22 11:19:02;;;;;;;;;;;;;;;34.84;24.68848;101480.8;;;;-87
2022/06/22 11:44:15;;;;;;;;;;;;;;;35.08;23.5957;101473.7;;;;-85
2022/06/22 15:47:48;;;;;;;;;;;;;;;35.28;22.53613;101355.3;;;;-84
2022/06/22 16:14:53;;;;;;;;;;;;;;;34.53;23.23535;101353.3;;;;-84
2022/06/22 16:18:50;;;;;;;;;;;;;;;34.63;23.41895;101359.5;;;;-72
2022/06/22 16:21:52;;;;;;;;;;;;;;;34.35;23.7959;101355.5;;;;-78
2022/06/22 16:26:51;;;;;;;;;;;;;;;34.19;23.98926;101351.2;;;;-77
2022/06/22 16:31:54;;;;;;;;;;;;;;;33.95;24.34473;101348.7;;;;-79
2022/06/22 16:36:54;;;;;;;;;;;;;;;33.73;24.60449;101348.8;;;;-77
2022/06/22 16:42:03;;;;;;;;;;;;;;;33.51;24.88965;101352.1;;;;-76
2022/06/22 16:46:51;;;;;;;;;;;;;;;33.33;25.08008;101352.9;;;;-77
2022/06/22 16:47:57;;;;;;;4.6;2;;;;;;;;;;;;;-77
2022/06/22 16:51:56;;;;;;;;;;;;;;;33.11;25.58887;101345.1;;;;-78
2022/06/22 16:56:58;;;;;;;;;;;;;;;32.92;25.96875;101338;;;;-76
2022/06/22 17:01:51;;;;;;;;;;;;;;;32.7;26.28809;101335;;;;-78
2022/06/22 17:06:52;;;;;;;;;;;;;;;32.44;26.75586;101335.1;;;;-78
2022/06/22 17:11:49;;;;;;;;;;;;;;;32.2;27.13184;101330.9;;;;-77
2022/06/22 17:16:56;;;;;;;;;;;;;;;31.98;27.54297;101333.9;;;;-77
2022/06/22 17:18:03;;;;;;;4.1;2;;;;;;;;;;;;;-76
2022/06/22 17:21:53;;;;;;;;;;;;;;;31.72;27.90527;101336.5;;;;-76
2022/06/22 17:26:51;;;;;;;;;;;;;;;31.47;28.30176;101334.8;;;;-76
2022/06/22 17:31:53;;;;;;;;;;;;;;;31.25;28.67676;101335.2;;;;-77
2022/06/22 17:37:02;;;;;;;;;;;;;;;30.98;29.16504;101339.8;;;;-77
2022/06/22 17:41:54;;;;;;;;;;;;;;;30.71;29.61914;101345.3;;;;-76
2022/06/22 17:46:54;;;;;;;;;;;;;;;30.48;30.00293;101350;;;;-77
2022/06/22 17:48:07;;;;;;;5.7;2.5;;;;;;;;;;;;;-78
2022/06/22 17:51:51;;;;;;;;;;;;;;;30.23;30.38574;101350.6;;;;-79
2022/06/22 17:56:51;;;;;;;;;;;;;;;29.98;30.73242;101354.3;;;;-76
2022/06/22 18:01:50;;;;;;;;;;;;;;;29.74;31.12695;101361.4;;;;-78
2022/06/22 18:06:51;;;;;;;;;;;;;;;29.51;31.35645;101354.7;;;;-77
2022/06/22 18:11:51;;;;;;;;;;;;;;;29.33;31.63672;101360.1;;;;-78
2022/06/22 18:16:52;;;;;;;;;;;;;;;29.1;31.89063;101356.9;;;;-77
2022/06/22 18:18:10;;;;;;;6.3;2.4;;;;;;;;;;;;;-77
2022/06/22 18:21:49;;;;;;;;;;;;;;;28.83;32.39746;101349.8;;;;-78
2022/06/22 18:26:51;;;;;;;;;;;;;;;28.6;32.79102;101343;;;;-74
2022/06/22 18:31:51;;;;;;;;;;;;;;;28.4;32.75293;101344.9;;;;-73
2022/06/22 18:36:55;;;;;;;;;;;;;;;28.17;33.22656;101339.6;;;;-74
2022/06/22 18:42:09;;;;;;;;;;;;;;;27.93;33.6875;101336.9;;;;-74
2022/06/22 18:46:52;;;;;;;;;;;;;;;27.73;33.55664;101338.5;;;;-76
2022/06/22 18:48:16;;;;;;;5.1;2.1;;;;;;;;;;;;;-76
2022/06/22 18:51:50;;;;;;;;;;;;;;;27.57;33.71875;101335.7;;;;-75
2022/06/22 18:56:52;;;;;;;;;;;;;;;27.4;33.83398;101336.7;;;;-75
2022/06/22 19:01:48;;;;;;;;;;;;;;;27.16;34.07227;101342.8;;;;-75
2022/06/22 19:06:53;;;;;;;;;;;;;;;26.9;34.2041;101341.6;;;;-78
2022/06/22 19:11:56;;;;;;;;;;;;;;;26.56;34.84082;101345.3;;;;-75
2022/06/22 19:16:56;;;;;;;;;;;;;;;25.99;37.2002;101342.8;;;;-77
2022/06/22 19:18:35;;;;;;;5.8;2.3;;;;;;;;;;;;;-77
2022/06/22 19:21:55;;;;;;;;;;;;;;;25.31;41.03711;101340;;;;-77
2022/06/22 19:26:51;;;;;;;;;;;;;;;24.86;42.97168;101346.4;;;;-77
2022/06/22 19:31:58;;;;;;;;;;;;;;;24.52;42.78906;101350.9;;;;-78
2022/06/22 19:36:52;;;;;;;;;;;;;;;24.2;44.77734;101351.5;;;;-77
2022/06/22 19:41:52;;;;;;;;;;;;;;;23.87;45.125;101363.9;;;;-78
2022/06/22 19:46:53;;;;;;;;;;;;;;;23.61;46.125;101371;;;;-76
2022/06/22 19:48:26;;;;;;;6.6;2.8;;;;;;;;;;;;;-77
2022/06/22 19:51:51;;;;;;;;;;;;;;;23.47;44.09473;101366.8;;;;-76
2022/06/22 19:56:51;;;;;;;;;;;;;;;23.4;43.4668;101370.9;;;;-78
2022/06/22 20:01:51;;;;;;;;;;;;;;;23.25;43.15234;101367.7;;;;-77
2022/06/22 20:06:52;;;;;;;;;;;;;;;23.05;43.27148;101373.8;;;;-75
2022/06/22 20:11:52;;;;;;;;;;;;;;;22.87;43.36816;101382.3;;;;-75
2022/06/22 20:16:57;;;;;;;;;;;;;;;22.63;43.7832;101386.9;;;;-77
2022/06/22 20:18:24;;;;;;;5.6;2.4;;;;;;;;;;;;;-75
2022/06/22 20:21:54;;;;;;;;;;;;;;;22.43;43.91309;101389.6;;;;-77
2022/06/22 20:26:53;;;;;;;;;;;;;;;22.21;44.56836;101391;;;;-75
2022/06/22 20:31:52;;;;;;;;;;;;;;;22.01;44.50195;101397.5;;;;-75
2022/06/22 20:36:54;;;;;;;;;;;;;;;21.83;44.63379;101399.3;;;;-76
2022/06/22 20:41:58;;;;;;;;;;;;;;;21.66;45.3623;101399.4;;;;-76
2022/06/22 20:46:53;;;;;;;;;;;;;;;21.48;45.37695;101406.7;;;;-76
2022/06/22 20:48:35;;;;;;;5.9;2.5;;;;;;;;;;;;;-77
2022/06/22 20:51:53;;;;;;;;;;;;;;;21.32;45.86621;101411.7;;;;-77
2022/06/22 20:56:50;;;;;;;;;;;;;;;21.18;45.58887;101413.2;;;;-77
2022/06/22 21:01:57;;;;;;;;;;;;;;;21.02;45.99512;101416.7;;;;-78
2022/06/22 21:06:50;;;;;;;;;;;;;;;20.88;46.1748;101418.2;;;;-76
2022/06/22 21:11:49;;;;;;;;;;;;;;;20.74;46.34375;101416.5;;;;-77
2022/06/22 21:17:06;;;;;;;;;;;;;;;20.62;46.6748;101429.2;;;;-77
2022/06/22 21:18:47;;;;;;;5.2;2.6;;;;;;;;;;;;;-77
2022/06/22 21:22:02;;;;;;;;;;;;;;;20.51;46.78906;101423.6;;;;-76
2022/06/22 21:26:48;;;;;;;;;;;;;;;20.38;46.83203;101430.9;;;;-75
2022/06/22 21:32:03;;;;;;;;;;;;;;;20.25;46.8291;101430;;;;-77
2022/06/22 21:37:00;;;;;;;;;;;;;;;20.13;47.11523;101438.3;;;;-76
2022/06/22 21:42:02;;;;;;;;;;;;;;;20.03;47.0918;101443.6;;;;-76
2022/06/22 21:46:54;;;;;;;;;;;;;;;19.93;47.74316;101441.6;;;;-76
2022/06/22 21:48:44;;;;;;;5.8;2.5;;;;;;;;;;;;;-77
2022/06/22 21:51:51;;;;;;;;;;;;;;;19.84;47.88281;101444.3;;;;-77
2022/06/22 21:56:59;;;;;;;;;;;;;;;19.74;47.84863;101441.6;;;;-76
2022/06/22 22:01:54;;;;;;;;;;;;;;;19.64;47.78027;101435.2;;;;-76
2022/06/22 22:06:59;;;;;;;;;;;;;;;19.55;48.19434;101433;;;;-77
2022/06/22 22:11:50;;;;;;;;;;;;;;;19.48;48.07129;101436.2;;;;-78
2022/06/22 22:16:50;;;;;;;;;;;;;;;19.4;48.67871;101434.5;;;;-77
2022/06/22 22:18:37;;;;;;;4.4;2.1;;;;;;;;;;;;;-77
2022/06/22 22:21:51;;;;;;;;;;;;;;;19.34;48.77539;101435.5;;;;-77
2022/06/22 22:26:53;;;;;;;;;;;;;;;19.26;49.08398;101434.7;;;;-77
2022/06/22 22:31:49;;;;;;;;;;;;;;;19.17;49.23438;101437.7;;;;-84
2022/06/22 22:36:50;;;;;;;;;;;;;;;19.11;50.32031;101439.8;;;;-84
2022/06/22 22:41:51;;;;;;;;;;;;;;;19.05;50.06348;101439.2;;;;-85
2022/06/22 22:46:53;;;;;;;;;;;;;;;19.01;50.57031;101440.5;;;;-83
2022/06/22 22:48:45;;;;;;;6.5;2.2;;;;;;;;;;;;;-83
2022/06/22 22:51:51;;;;;;;;;;;;;;;18.91;50.52441;101442.4;;;;-84
2022/06/22 22:56:54;;;;;;;;;;;;;;;18.88;50.23828;101434.3;;;;-83
2022/06/22 23:01:49;;;;;;;;;;;;;;;18.81;51.15137;101438.3;;;;-84
2022/06/22 23:06:53;;;;;;;;;;;;;;;18.79;51.02344;101436.8;;;;-82
2022/06/22 23:11:50;;;;;;;;;;;;;;;18.72;51.68652;101441.9;;;;-83
2022/06/22 23:16:53;;;;;;;;;;;;;;;18.62;51.73242;101443.8;;;;-84
2022/06/22 23:18:42;;;;;;;5.3;2.1;;;;;;;;;;;;;-84
2022/06/22 23:21:52;;;;;;;;;;;;;;;18.58;51.53418;101441.6;;;;-84
2022/06/22 23:26:53;;;;;;;;;;;;;;;18.53;51.5166;101433.1;;;;-83
2022/06/22 23:31:54;;;;;;;;;;;;;;;18.5;51.60449;101425.5;;;;-85
2022/06/22 23:36:50;;;;;;;;;;;;;;;18.44;51.91504;101436.3;;;;-85
2022/06/22 23:41:51;;;;;;;;;;;;;;;18.39;51.5791;101426.4;;;;-83
2022/06/22 23:48:10;;;;;;;;;;;;;;;18.33;52.37891;101424.4;;;;-84
2022/06/22 23:48:48;;;;;;;4.4;2;;;;;;;;;;;;;-84
2022/06/22 23:51:55;;;;;;;;;;;;;;;18.27;51.80371;101432;;;;-84
2022/06/22 23:56:50;;;;;;;;;;;;;;;18.21;51.80859;101420.9;;;;-85
